sensor_id;sensor_type;location;lat;lon;timestamp;P1;durP1;ratioP1;P2;durP2;ratioP2
26634;SDS011;14490;54.208;37.686;2023-09-08T00:02:23;1.27;;;0.88;;
26634;SDS011;14490;54.208;37.686;2023-09-08T00:04:52;5.53;;;1.15;;
26634;SDS011;14490;54.208;37.686;2023-09-08T00:07:19;1.75;;;0.98;;
26634;SDS011;14490;54.208;37.686;2023-09-08T00:09:46;1.75;;;1.00;;
26634;SDS011;14490;54.208;37.686;2023-09-08T00:12:13;2.50;;;0.80;;
26634;SDS011;14490;54.208;37.686;2023-09-08T00:14:40;3.55;;;1.15;;
26634;SDS011;14490;54.208;37.686;2023-09-08T00:17:07;3.97;;;0.77;;
26634;SDS011;14490;54.208;37.686;2023-09-08T00:19:34;1.52;;;0.63;;
26634;SDS011;14490;54.208;37.686;2023-09-08T00:22:03;1.23;;;0.77;;
26634;SDS011;14490;54.208;37.686;2023-09-08T00:24:37;2.85;;;0.60;;
26634;SDS011;14490;54.208;37.686;2023-09-08T00:27:04;1.20;;;0.80;;
26634;SDS011;14490;54.208;37.686;2023-09-08T00:29:31;3.00;;;1.10;;
26634;SDS011;14490;54.208;37.686;2023-09-08T00:31:58;2.90;;;0.85;;
26634;SDS011;14490;54.208;37.686;2023-09-08T00:34:29;4.18;;;0.68;;
26634;SDS011;14490;54.208;37.686;2023-09-08T00:36:56;4.00;;;0.90;;
26634;SDS011;14490;54.208;37.686;2023-09-08T00:39:31;1.50;;;0.63;;
26634;SDS011;14490;54.208;37.686;2023-09-08T00:41:58;4.13;;;1.23;;
26634;SDS011;14490;54.208;37.686;2023-09-08T00:44:27;4.55;;;1.02;;
26634;SDS011;14490;54.208;37.686;2023-09-08T00:46:55;5.10;;;1.35;;
26634;SDS011;14490;54.208;37.686;2023-09-08T00:49:22;4.93;;;0.70;;
26634;SDS011;14490;54.208;37.686;2023-09-08T00:51:53;2.42;;;0.90;;
26634;SDS011;14490;54.208;37.686;2023-09-08T00:54:20;6.28;;;0.75;;
26634;SDS011;14490;54.208;37.686;2023-09-08T00:56:50;2.97;;;1.10;;
26634;SDS011;14490;54.208;37.686;2023-09-08T00:59:19;2.85;;;0.90;;
26634;SDS011;14490;54.208;37.686;2023-09-08T01:01:56;2.50;;;0.93;;
26634;SDS011;14490;54.208;37.686;2023-09-08T01:04:24;1.63;;;0.80;;
26634;SDS011;14490;54.208;37.686;2023-09-08T01:06:51;2.55;;;1.05;;
26634;SDS011;14490;54.208;37.686;2023-09-08T01:09:23;3.97;;;0.95;;
26634;SDS011;14490;54.208;37.686;2023-09-08T01:11:52;1.88;;;1.30;;
26634;SDS011;14490;54.208;37.686;2023-09-08T01:14:20;1.80;;;1.13;;
26634;SDS011;14490;54.208;37.686;2023-09-08T01:16:47;2.35;;;0.93;;
26634;SDS011;14490;54.208;37.686;2023-09-08T01:19:15;3.88;;;1.25;;
26634;SDS011;14490;54.208;37.686;2023-09-08T01:21:52;4.93;;;1.08;;
26634;SDS011;14490;54.208;37.686;2023-09-08T01:27:32;4.25;;;0.95;;
26634;SDS011;14490;54.208;37.686;2023-09-08T01:30:01;5.50;;;1.80;;
26634;SDS011;14490;54.208;37.686;2023-09-08T01:32:29;1.55;;;1.00;;
26634;SDS011;14490;54.208;37.686;2023-09-08T01:34:56;5.35;;;1.20;;
26634;SDS011;14490;54.208;37.686;2023-09-08T01:37:24;2.90;;;1.25;;
26634;SDS011;14490;54.208;37.686;2023-09-08T01:39:51;2.63;;;1.00;;
26634;SDS011;14490;54.208;37.686;2023-09-08T01:42:18;2.25;;;1.08;;
26634;SDS011;14490;54.208;37.686;2023-09-08T01:44:47;4.68;;;1.17;;
26634;SDS011;14490;54.208;37.686;2023-09-08T01:47:13;1.42;;;0.88;;
26634;SDS011;14490;54.208;37.686;2023-09-08T01:49:40;1.75;;;1.35;;
26634;SDS011;14490;54.208;37.686;2023-09-08T01:52:07;1.77;;;0.90;;
26634;SDS011;14490;54.208;37.686;2023-09-08T01:54:34;4.03;;;0.98;;
26634;SDS011;14490;54.208;37.686;2023-09-08T01:57:01;13.27;;;2.00;;
26634;SDS011;14490;54.208;37.686;2023-09-08T01:59:29;5.45;;;1.13;;
26634;SDS011;14490;54.208;37.686;2023-09-08T02:01:57;3.70;;;0.90;;
26634;SDS011;14490;54.208;37.686;2023-09-08T02:04:25;2.20;;;1.20;;
26634;SDS011;14490;54.208;37.686;2023-09-08T02:06:52;3.15;;;0.70;;
26634;SDS011;14490;54.208;37.686;2023-09-08T02:09:19;3.35;;;1.17;;
26634;SDS011;14490;54.208;37.686;2023-09-08T02:11:50;1.55;;;1.17;;
26634;SDS011;14490;54.208;37.686;2023-09-08T02:14:18;1.85;;;0.80;;
26634;SDS011;14490;54.208;37.686;2023-09-08T02:16:45;2.28;;;0.80;;
26634;SDS011;14490;54.208;37.686;2023-09-08T02:19:13;2.67;;;1.15;;
26634;SDS011;14490;54.208;37.686;2023-09-08T02:21:40;3.63;;;1.25;;
26634;SDS011;14490;54.208;37.686;2023-09-08T02:24:07;5.20;;;1.20;;
26634;SDS011;14490;54.208;37.686;2023-09-08T02:26:37;3.38;;;1.13;;
26634;SDS011;14490;54.208;37.686;2023-09-08T02:29:12;2.83;;;0.90;;
26634;SDS011;14490;54.208;37.686;2023-09-08T02:31:48;6.38;;;1.45;;
26634;SDS011;14490;54.208;37.686;2023-09-08T02:34:16;3.88;;;1.10;;
26634;SDS011;14490;54.208;37.686;2023-09-08T02:36:43;2.75;;;1.05;;
26634;SDS011;14490;54.208;37.686;2023-09-08T02:39:12;3.05;;;1.00;;
26634;SDS011;14490;54.208;37.686;2023-09-08T02:41:40;1.85;;;1.20;;
26634;SDS011;14490;54.208;37.686;2023-09-08T02:44:07;5.32;;;2.33;;
26634;SDS011;14490;54.208;37.686;2023-09-08T02:46:34;9.10;;;8.20;;
26634;SDS011;14490;54.208;37.686;2023-09-08T02:49:01;8.27;;;7.55;;
26634;SDS011;14490;54.208;37.686;2023-09-08T02:51:29;4.28;;;3.88;;
26634;SDS011;14490;54.208;37.686;2023-09-08T02:53:56;7.45;;;5.85;;
26634;SDS011;14490;54.208;37.686;2023-09-08T02:56:23;8.20;;;2.78;;
26634;SDS011;14490;54.208;37.686;2023-09-08T02:58:50;6.22;;;1.77;;
26634;SDS011;14490;54.208;37.686;2023-09-08T03:01:17;4.07;;;1.35;;
26634;SDS011;14490;54.208;37.686;2023-09-08T03:03:45;2.45;;;1.40;;
26634;SDS011;14490;54.208;37.686;2023-09-08T03:06:13;2.15;;;1.30;;
26634;SDS011;14490;54.208;37.686;2023-09-08T03:08:42;2.13;;;1.13;;
26634;SDS011;14490;54.208;37.686;2023-09-08T03:11:09;2.20;;;1.60;;
26634;SDS011;14490;54.208;37.686;2023-09-08T03:13:36;3.92;;;1.42;;
26634;SDS011;14490;54.208;37.686;2023-09-08T03:16:03;6.75;;;1.20;;
26634;SDS011;14490;54.208;37.686;2023-09-08T03:18:31;2.85;;;1.67;;
26634;SDS011;14490;54.208;37.686;2023-09-08T03:20:58;3.45;;;2.00;;
26634;SDS011;14490;54.208;37.686;2023-09-08T03:23:28;3.75;;;1.42;;
26634;SDS011;14490;54.208;37.686;2023-09-08T03:25:57;5.32;;;1.65;;
26634;SDS011;14490;54.208;37.686;2023-09-08T03:28:23;3.38;;;1.30;;
26634;SDS011;14490;54.208;37.686;2023-09-08T03:30:50;3.40;;;0.95;;
26634;SDS011;14490;54.208;37.686;2023-09-08T03:33:17;2.25;;;1.02;;
26634;SDS011;14490;54.208;37.686;2023-09-08T03:35:44;2.60;;;1.20;;
26634;SDS011;14490;54.208;37.686;2023-09-08T03:38:11;4.13;;;1.08;;
26634;SDS011;14490;54.208;37.686;2023-09-08T03:40:38;5.50;;;1.88;;
26634;SDS011;14490;54.208;37.686;2023-09-08T03:43:07;4.97;;;1.00;;
26634;SDS011;14490;54.208;37.686;2023-09-08T03:45:33;4.82;;;1.00;;
26634;SDS011;14490;54.208;37.686;2023-09-08T03:48:00;1.70;;;1.08;;
26634;SDS011;14490;54.208;37.686;2023-09-08T03:50:45;3.38;;;1.02;;
26634;SDS011;14490;54.208;37.686;2023-09-08T03:53:18;2.90;;;0.90;;
26634;SDS011;14490;54.208;37.686;2023-09-08T04:09:25;2.83;;;1.60;;
26634;SDS011;14490;54.208;37.686;2023-09-08T04:11:53;2.30;;;1.77;;
26634;SDS011;14490;54.208;37.686;2023-09-08T04:14:20;6.03;;;2.40;;
26634;SDS011;14490;54.208;37.686;2023-09-08T04:16:52;2.38;;;1.90;;
26634;SDS011;14490;54.208;37.686;2023-09-08T04:19:24;4.65;;;2.55;;
26634;SDS011;14490;54.208;37.686;2023-09-08T04:21:57;3.88;;;2.20;;
26634;SDS011;14490;54.208;37.686;2023-09-08T04:24:25;4.35;;;2.55;;
26634;SDS011;14490;54.208;37.686;2023-09-08T04:26:54;2.70;;;2.35;;
26634;SDS011;14490;54.208;37.686;2023-09-08T04:29:26;6.35;;;2.70;;
26634;SDS011;14490;54.208;37.686;2023-09-08T04:31:53;4.80;;;2.85;;
26634;SDS011;14490;54.208;37.686;2023-09-08T04:34:22;5.03;;;2.60;;
26634;SDS011;14490;54.208;37.686;2023-09-08T04:37:09;4.60;;;2.58;;
26634;SDS011;14490;54.208;37.686;2023-09-08T04:39:43;7.28;;;2.45;;
26634;SDS011;14490;54.208;37.686;2023-09-08T04:42:10;2.92;;;2.03;;
26634;SDS011;14490;54.208;37.686;2023-09-08T04:44:38;5.85;;;3.63;;
26634;SDS011;14490;54.208;37.686;2023-09-08T04:47:05;4.90;;;2.22;;
26634;SDS011;14490;54.208;37.686;2023-09-08T04:49:32;3.38;;;1.73;;
26634;SDS011;14490;54.208;37.686;2023-09-08T04:51:59;4.30;;;1.33;;
26634;SDS011;14490;54.208;37.686;2023-09-08T04:54:26;3.08;;;1.90;;
26634;SDS011;14490;54.208;37.686;2023-09-08T04:56:54;3.20;;;2.03;;
26634;SDS011;14490;54.208;37.686;2023-09-08T04:59:21;3.83;;;1.98;;
26634;SDS011;14490;54.208;37.686;2023-09-08T05:01:49;5.07;;;2.92;;
26634;SDS011;14490;54.208;37.686;2023-09-08T05:04:16;5.03;;;3.30;;
26634;SDS011;14490;54.208;37.686;2023-09-08T05:06:43;3.97;;;3.58;;
26634;SDS011;14490;54.208;37.686;2023-09-08T05:09:10;4.20;;;3.83;;
26634;SDS011;14490;54.208;37.686;2023-09-08T05:11:37;5.38;;;3.17;;
26634;SDS011;14490;54.208;37.686;2023-09-08T05:14:06;4.68;;;3.67;;
26634;SDS011;14490;54.208;37.686;2023-09-08T05:16:33;3.78;;;3.20;;
26634;SDS011;14490;54.208;37.686;2023-09-08T05:19:04;5.15;;;4.00;;
26634;SDS011;14490;54.208;37.686;2023-09-08T05:21:32;6.03;;;4.05;;
26634;SDS011;14490;54.208;37.686;2023-09-08T05:24:00;4.97;;;4.15;;
26634;SDS011;14490;54.208;37.686;2023-09-08T05:26:27;7.20;;;4.43;;
26634;SDS011;14490;54.208;37.686;2023-09-08T05:28:53;3.55;;;2.95;;
26634;SDS011;14490;54.208;37.686;2023-09-08T05:31:22;7.88;;;3.85;;
26634;SDS011;14490;54.208;37.686;2023-09-08T05:33:49;3.25;;;2.95;;
26634;SDS011;14490;54.208;37.686;2023-09-08T05:36:16;4.18;;;3.58;;
26634;SDS011;14490;54.208;37.686;2023-09-08T05:38:43;4.30;;;3.20;;
26634;SDS011;14490;54.208;37.686;2023-09-08T05:41:09;3.38;;;2.85;;
26634;SDS011;14490;54.208;37.686;2023-09-08T05:43:37;5.25;;;3.10;;
26634;SDS011;14490;54.208;37.686;2023-09-08T05:46:04;4.53;;;2.20;;
26634;SDS011;14490;54.208;37.686;2023-09-08T05:48:32;3.88;;;3.38;;
26634;SDS011;14490;54.208;37.686;2023-09-08T05:50:59;4.03;;;3.63;;
26634;SDS011;14490;54.208;37.686;2023-09-08T05:53:27;4.88;;;3.90;;
26634;SDS011;14490;54.208;37.686;2023-09-08T05:55:54;6.38;;;3.95;;
26634;SDS011;14490;54.208;37.686;2023-09-08T05:58:21;3.50;;;3.20;;
26634;SDS011;14490;54.208;37.686;2023-09-08T06:00:49;6.10;;;4.25;;
26634;SDS011;14490;54.208;37.686;2023-09-08T06:03:16;8.88;;;3.75;;
26634;SDS011;14490;54.208;37.686;2023-09-08T06:05:44;3.17;;;2.10;;
26634;SDS011;14490;54.208;37.686;2023-09-08T06:08:11;5.45;;;2.75;;
26634;SDS011;14490;54.208;37.686;2023-09-08T06:10:38;3.25;;;2.40;;
26634;SDS011;14490;54.208;37.686;2023-09-08T06:13:05;2.28;;;1.98;;
26634;SDS011;14490;54.208;37.686;2023-09-08T06:15:32;6.28;;;2.30;;
26634;SDS011;14490;54.208;37.686;2023-09-08T06:17:59;5.80;;;2.50;;
26634;SDS011;14490;54.208;37.686;2023-09-08T06:20:26;3.92;;;2.60;;
26634;SDS011;14490;54.208;37.686;2023-09-08T06:22:55;4.88;;;2.22;;
26634;SDS011;14490;54.208;37.686;2023-09-08T06:25:22;4.55;;;2.20;;
26634;SDS011;14490;54.208;37.686;2023-09-08T06:27:49;3.58;;;2.83;;
26634;SDS011;14490;54.208;37.686;2023-09-08T06:30:15;2.92;;;2.33;;
26634;SDS011;14490;54.208;37.686;2023-09-08T06:32:43;4.85;;;2.50;;
26634;SDS011;14490;54.208;37.686;2023-09-08T06:35:10;7.80;;;2.88;;
26634;SDS011;14490;54.208;37.686;2023-09-08T06:37:37;2.92;;;2.63;;
26634;SDS011;14490;54.208;37.686;2023-09-08T06:40:06;4.80;;;2.15;;
26634;SDS011;14490;54.208;37.686;2023-09-08T06:42:33;3.08;;;2.20;;
26634;SDS011;14490;54.208;37.686;2023-09-08T06:45:00;4.68;;;2.42;;
26634;SDS011;14490;54.208;37.686;2023-09-08T06:47:27;4.10;;;2.00;;
26634;SDS011;14490;54.208;37.686;2023-09-08T06:49:54;2.35;;;1.90;;
26634;SDS011;14490;54.208;37.686;2023-09-08T06:52:21;5.13;;;1.90;;
26634;SDS011;14490;54.208;37.686;2023-09-08T06:54:48;2.72;;;1.90;;
26634;SDS011;14490;54.208;37.686;2023-09-08T06:57:17;3.83;;;1.95;;
26634;SDS011;14490;54.208;37.686;2023-09-08T06:59:44;2.78;;;1.48;;
26634;SDS011;14490;54.208;37.686;2023-09-08T07:02:11;4.82;;;2.03;;
26634;SDS011;14490;54.208;37.686;2023-09-08T07:04:38;2.90;;;1.80;;
26634;SDS011;14490;54.208;37.686;2023-09-08T07:07:05;4.65;;;3.33;;
26634;SDS011;14490;54.208;37.686;2023-09-08T07:09:33;2.75;;;1.85;;
26634;SDS011;14490;54.208;37.686;2023-09-08T07:12:00;3.08;;;2.35;;
26634;SDS011;14490;54.208;37.686;2023-09-08T07:14:28;2.88;;;1.58;;
26634;SDS011;14490;54.208;37.686;2023-09-08T07:16:56;5.72;;;2.05;;
26634;SDS011;14490;54.208;37.686;2023-09-08T07:19:23;2.75;;;1.88;;
26634;SDS011;14490;54.208;37.686;2023-09-08T07:21:51;2.95;;;1.55;;
26634;SDS011;14490;54.208;37.686;2023-09-08T07:24:18;2.55;;;1.42;;
26634;SDS011;14490;54.208;37.686;2023-09-08T07:26:45;2.90;;;1.65;;
26634;SDS011;14490;54.208;37.686;2023-09-08T07:29:12;2.78;;;1.58;;
26634;SDS011;14490;54.208;37.686;2023-09-08T07:31:40;3.63;;;1.48;;
26634;SDS011;14490;54.208;37.686;2023-09-08T07:34:07;1.70;;;1.08;;
26634;SDS011;14490;54.208;37.686;2023-09-08T07:36:35;4.68;;;1.40;;
26634;SDS011;14490;54.208;37.686;2023-09-08T07:39:02;4.40;;;1.98;;
26634;SDS011;14490;54.208;37.686;2023-09-08T07:41:29;1.55;;;1.02;;
26634;SDS011;14490;54.208;37.686;2023-09-08T07:43:56;1.17;;;1.02;;
26634;SDS011;14490;54.208;37.686;2023-09-08T07:46:25;1.83;;;1.13;;
26634;SDS011;14490;54.208;37.686;2023-09-08T07:48:57;2.03;;;1.20;;
26634;SDS011;14490;54.208;37.686;2023-09-08T07:51:24;2.13;;;1.35;;
26634;SDS011;14490;54.208;37.686;2023-09-08T07:53:52;2.88;;;1.13;;
26634;SDS011;14490;54.208;37.686;2023-09-08T07:56:21;2.22;;;1.20;;
26634;SDS011;14490;54.208;37.686;2023-09-08T07:58:48;2.15;;;0.90;;
26634;SDS011;14490;54.208;37.686;2023-09-08T08:01:15;1.40;;;0.90;;
26634;SDS011;14490;54.208;37.686;2023-09-08T08:03:42;1.27;;;0.77;;
26634;SDS011;14490;54.208;37.686;2023-09-08T08:06:10;2.42;;;0.88;;
26634;SDS011;14490;54.208;37.686;2023-09-08T08:08:37;3.60;;;1.00;;
26634;SDS011;14490;54.208;37.686;2023-09-08T08:11:08;1.70;;;0.90;;
26634;SDS011;14490;54.208;37.686;2023-09-08T08:13:36;2.47;;;0.90;;
26634;SDS011;14490;54.208;37.686;2023-09-08T08:16:03;2.50;;;1.20;;
26634;SDS011;14490;54.208;37.686;2023-09-08T08:18:30;0.80;;;0.80;;
26634;SDS011;14490;54.208;37.686;2023-09-08T08:20:57;2.55;;;1.23;;
26634;SDS011;14490;54.208;37.686;2023-09-08T08:23:27;1.10;;;0.60;;
26634;SDS011;14490;54.208;37.686;2023-09-08T08:25:54;1.95;;;0.77;;
26634;SDS011;14490;54.208;37.686;2023-09-08T08:28:20;1.58;;;0.50;;
26634;SDS011;14490;54.208;37.686;2023-09-08T08:30:47;2.38;;;1.08;;
26634;SDS011;14490;54.208;37.686;2023-09-08T08:33:14;0.90;;;0.63;;
26634;SDS011;14490;54.208;37.686;2023-09-08T08:35:41;0.70;;;0.52;;
26634;SDS011;14490;54.208;37.686;2023-09-08T08:38:13;3.22;;;1.13;;
26634;SDS011;14490;54.208;37.686;2023-09-08T08:40:42;2.20;;;0.70;;
26634;SDS011;14490;54.208;37.686;2023-09-08T08:43:09;1.58;;;0.50;;
26634;SDS011;14490;54.208;37.686;2023-09-08T08:45:36;3.05;;;0.63;;
26634;SDS011;14490;54.208;37.686;2023-09-08T08:48:05;2.03;;;0.55;;
26634;SDS011;14490;54.208;37.686;2023-09-08T08:50:33;2.10;;;0.75;;
26634;SDS011;14490;54.208;37.686;2023-09-08T08:53:01;1.45;;;0.93;;
26634;SDS011;14490;54.208;37.686;2023-09-08T08:55:29;2.92;;;0.70;;
26634;SDS011;14490;54.208;37.686;2023-09-08T08:58:00;4.97;;;0.90;;
26634;SDS011;14490;54.208;37.686;2023-09-08T09:00:29;1.23;;;0.60;;
26634;SDS011;14490;54.208;37.686;2023-09-08T09:02:56;2.20;;;0.80;;
26634;SDS011;14490;54.208;37.686;2023-09-08T09:05:24;1.80;;;0.55;;
26634;SDS011;14490;54.208;37.686;2023-09-08T09:07:51;1.58;;;0.65;;
26634;SDS011;14490;54.208;37.686;2023-09-08T09:10:19;2.00;;;0.77;;
26634;SDS011;14490;54.208;37.686;2023-09-08T09:12:46;4.70;;;0.70;;
26634;SDS011;14490;54.208;37.686;2023-09-08T09:15:14;1.05;;;0.40;;
26634;SDS011;14490;54.208;37.686;2023-09-08T09:17:42;1.50;;;0.73;;
26634;SDS011;14490;54.208;37.686;2023-09-08T09:20:13;2.60;;;0.65;;
26634;SDS011;14490;54.208;37.686;2023-09-08T09:22:42;4.30;;;0.50;;
26634;SDS011;14490;54.208;37.686;2023-09-08T09:25:10;1.08;;;0.40;;
26634;SDS011;14490;54.208;37.686;2023-09-08T09:27:49;0.45;;;0.32;;
26634;SDS011;14490;54.208;37.686;2023-09-08T09:30:22;2.00;;;0.22;;
26634;SDS011;14490;54.208;37.686;2023-09-08T09:32:57;4.82;;;0.60;;
26634;SDS011;14490;54.208;37.686;2023-09-08T09:35:38;2.63;;;0.60;;
26634;SDS011;14490;54.208;37.686;2023-09-08T09:38:06;2.25;;;0.50;;
26634;SDS011;14490;54.208;37.686;2023-09-08T09:40:33;2.22;;;0.43;;
26634;SDS011;14490;54.208;37.686;2023-09-08T09:43:00;0.88;;;0.52;;
26634;SDS011;14490;54.208;37.686;2023-09-08T09:45:30;3.80;;;0.82;;
26634;SDS011;14490;54.208;37.686;2023-09-08T09:47:57;2.30;;;0.90;;
26634;SDS011;14490;54.208;37.686;2023-09-08T09:50:27;1.80;;;0.70;;
26634;SDS011;14490;54.208;37.686;2023-09-08T09:52:57;0.98;;;0.50;;
26634;SDS011;14490;54.208;37.686;2023-09-08T09:55:24;1.58;;;0.55;;
26634;SDS011;14490;54.208;37.686;2023-09-08T09:57:53;1.45;;;0.75;;
26634;SDS011;14490;54.208;37.686;2023-09-08T10:00:23;0.90;;;0.60;;
26634;SDS011;14490;54.208;37.686;2023-09-08T10:02:52;0.57;;;0.43;;
26634;SDS011;14490;54.208;37.686;2023-09-08T10:05:19;1.27;;;0.90;;
26634;SDS011;14490;54.208;37.686;2023-09-08T10:07:48;3.80;;;0.75;;
26634;SDS011;14490;54.208;37.686;2023-09-08T10:10:16;1.02;;;0.50;;
26634;SDS011;14490;54.208;37.686;2023-09-08T10:12:44;1.52;;;0.77;;
26634;SDS011;14490;54.208;37.686;2023-09-08T10:15:12;2.72;;;0.43;;
26634;SDS011;14490;54.208;37.686;2023-09-08T10:17:39;1.08;;;0.60;;
26634;SDS011;14490;54.208;37.686;2023-09-08T10:20:09;4.28;;;0.70;;
26634;SDS011;14490;54.208;37.686;2023-09-08T10:22:38;1.27;;;0.60;;
26634;SDS011;14490;54.208;37.686;2023-09-08T10:25:08;0.75;;;0.45;;
26634;SDS011;14490;54.208;37.686;2023-09-08T10:27:36;2.38;;;0.63;;
26634;SDS011;14490;54.208;37.686;2023-09-08T10:30:03;1.75;;;0.75;;
26634;SDS011;14490;54.208;37.686;2023-09-08T10:32:31;1.15;;;1.05;;
26634;SDS011;14490;54.208;37.686;2023-09-08T10:35:00;4.63;;;0.70;;
26634;SDS011;14490;54.208;37.686;2023-09-08T10:37:29;2.78;;;0.93;;
26634;SDS011;14490;54.208;37.686;2023-09-08T10:39:56;4.75;;;1.42;;
26634;SDS011;14490;54.208;37.686;2023-09-08T10:42:54;0.98;;;0.50;;
26634;SDS011;14490;54.208;37.686;2023-09-08T10:45:32;1.10;;;0.50;;
26634;SDS011;14490;54.208;37.686;2023-09-08T10:47:59;1.05;;;0.50;;
26634;SDS011;14490;54.208;37.686;2023-09-08T10:50:27;2.15;;;0.70;;
26634;SDS011;14490;54.208;37.686;2023-09-08T10:53:05;2.35;;;1.30;;
26634;SDS011;14490;54.208;37.686;2023-09-08T10:55:35;5.40;;;0.70;;
26634;SDS011;14490;54.208;37.686;2023-09-08T10:58:03;1.00;;;0.50;;
26634;SDS011;14490;54.208;37.686;2023-09-08T11:00:42;1.98;;;0.43;;
26634;SDS011;14490;54.208;37.686;2023-09-08T11:03:10;1.42;;;0.50;;
26634;SDS011;14490;54.208;37.686;2023-09-08T11:05:38;2.35;;;0.70;;
26634;SDS011;14490;54.208;37.686;2023-09-08T11:08:06;2.88;;;0.40;;
26634;SDS011;14490;54.208;37.686;2023-09-08T11:10:33;1.63;;;0.70;;
26634;SDS011;14490;54.208;37.686;2023-09-08T11:13:03;2.25;;;0.80;;
26634;SDS011;14490;54.208;37.686;2023-09-08T11:15:31;2.17;;;1.23;;
26634;SDS011;14490;54.208;37.686;2023-09-08T11:18:02;0.68;;;0.45;;
26634;SDS011;14490;54.208;37.686;2023-09-08T11:20:31;2.22;;;1.50;;
26634;SDS011;14490;54.208;37.686;2023-09-08T11:22:58;0.80;;;0.60;;
26634;SDS011;14490;54.208;37.686;2023-09-08T11:25:33;2.13;;;0.70;;
26634;SDS011;14490;54.208;37.686;2023-09-08T11:28:01;5.68;;;0.88;;
26634;SDS011;14490;54.208;37.686;2023-09-08T11:30:28;0.57;;;0.30;;
26634;SDS011;14490;54.208;37.686;2023-09-08T11:32:55;5.65;;;0.80;;
26634;SDS011;14490;54.208;37.686;2023-09-08T11:35:33;2.13;;;0.50;;
26634;SDS011;14490;54.208;37.686;2023-09-08T11:38:00;2.38;;;0.50;;
26634;SDS011;14490;54.208;37.686;2023-09-08T11:40:30;2.78;;;0.77;;
26634;SDS011;14490;54.208;37.686;2023-09-08T11:42:59;2.35;;;0.38;;
26634;SDS011;14490;54.208;37.686;2023-09-08T11:45:27;1.88;;;0.80;;
26634;SDS011;14490;54.208;37.686;2023-09-08T11:47:53;0.88;;;0.38;;
26634;SDS011;14490;54.208;37.686;2023-09-08T11:50:20;1.48;;;0.45;;
26634;SDS011;14490;54.208;37.686;2023-09-08T11:52:48;2.03;;;0.50;;
26634;SDS011;14490;54.208;37.686;2023-09-08T11:55:22;1.13;;;0.50;;
26634;SDS011;14490;54.208;37.686;2023-09-08T11:57:54;1.65;;;0.70;;
26634;SDS011;14490;54.208;37.686;2023-09-08T12:00:22;0.40;;;0.40;;
26634;SDS011;14490;54.208;37.686;2023-09-08T12:02:51;3.13;;;0.75;;
26634;SDS011;14490;54.208;37.686;2023-09-08T12:05:21;4.57;;;0.55;;
26634;SDS011;14490;54.208;37.686;2023-09-08T12:07:49;1.30;;;0.73;;
26634;SDS011;14490;54.208;37.686;2023-09-08T12:10:17;2.30;;;0.63;;
26634;SDS011;14490;54.208;37.686;2023-09-08T12:12:48;0.77;;;0.60;;
26634;SDS011;14490;54.208;37.686;2023-09-08T12:15:32;0.88;;;0.52;;
26634;SDS011;14490;54.208;37.686;2023-09-08T12:17:59;0.65;;;0.43;;
26634;SDS011;14490;54.208;37.686;2023-09-08T12:20:27;3.75;;;0.77;;
26634;SDS011;14490;54.208;37.686;2023-09-08T12:22:56;2.63;;;0.95;;
26634;SDS011;14490;54.208;37.686;2023-09-08T12:25:24;4.35;;;0.32;;
26634;SDS011;14490;54.208;37.686;2023-09-08T12:27:53;2.10;;;0.90;;
26634;SDS011;14490;54.208;37.686;2023-09-08T12:30:21;1.40;;;0.80;;
26634;SDS011;14490;54.208;37.686;2023-09-08T12:32:56;1.65;;;0.65;;
26634;SDS011;14490;54.208;37.686;2023-09-08T12:35:24;4.10;;;0.98;;
26634;SDS011;14490;54.208;37.686;2023-09-08T12:37:53;0.85;;;0.50;;
26634;SDS011;14490;54.208;37.686;2023-09-08T12:40:29;1.52;;;1.25;;
26634;SDS011;14490;54.208;37.686;2023-09-08T12:42:57;4.95;;;0.88;;
26634;SDS011;14490;54.208;37.686;2023-09-08T12:45:25;3.05;;;0.70;;
26634;SDS011;14490;54.208;37.686;2023-09-08T12:47:52;1.35;;;0.32;;
26634;SDS011;14490;54.208;37.686;2023-09-08T12:50:24;1.17;;;0.50;;
26634;SDS011;14490;54.208;37.686;2023-09-08T12:52:51;0.75;;;0.38;;
26634;SDS011;14490;54.208;37.686;2023-09-08T12:55:19;1.73;;;0.47;;
26634;SDS011;14490;54.208;37.686;2023-09-08T12:57:46;0.57;;;0.40;;
26634;SDS011;14490;54.208;37.686;2023-09-08T13:00:15;2.50;;;0.50;;
26634;SDS011;14490;54.208;37.686;2023-09-08T13:02:45;2.10;;;0.50;;
26634;SDS011;14490;54.208;37.686;2023-09-08T13:05:12;1.20;;;0.57;;
26634;SDS011;14490;54.208;37.686;2023-09-08T13:07:40;1.17;;;0.63;;
26634;SDS011;14490;54.208;37.686;2023-09-08T13:10:07;2.78;;;0.47;;
26634;SDS011;14490;54.208;37.686;2023-09-08T13:12:35;5.15;;;0.80;;
26634;SDS011;14490;54.208;37.686;2023-09-08T13:15:02;2.78;;;1.38;;
26634;SDS011;14490;54.208;37.686;2023-09-08T13:17:29;1.05;;;0.45;;
26634;SDS011;14490;54.208;37.686;2023-09-08T13:19:56;3.70;;;0.90;;
26634;SDS011;14490;54.208;37.686;2023-09-08T13:22:23;2.58;;;0.40;;
26634;SDS011;14490;54.208;37.686;2023-09-08T13:24:55;3.97;;;0.45;;
26634;SDS011;14490;54.208;37.686;2023-09-08T13:27:22;3.22;;;0.70;;
26634;SDS011;14490;54.208;37.686;2023-09-08T13:29:49;2.47;;;0.57;;
26634;SDS011;14490;54.208;37.686;2023-09-08T13:32:18;2.63;;;0.95;;
26634;SDS011;14490;54.208;37.686;2023-09-08T13:34:46;2.58;;;0.82;;
26634;SDS011;14490;54.208;37.686;2023-09-08T13:37:13;1.77;;;0.60;;
26634;SDS011;14490;54.208;37.686;2023-09-08T13:39:41;4.05;;;0.40;;
26634;SDS011;14490;54.208;37.686;2023-09-08T13:42:09;1.83;;;0.75;;
26634;SDS011;14490;54.208;37.686;2023-09-08T13:44:36;1.83;;;0.47;;
26634;SDS011;14490;54.208;37.686;2023-09-08T13:47:04;0.85;;;0.50;;
26634;SDS011;14490;54.208;37.686;2023-09-08T13:49:31;1.55;;;0.30;;
26634;SDS011;14490;54.208;37.686;2023-09-08T13:52:01;3.13;;;1.75;;
26634;SDS011;14490;54.208;37.686;2023-09-08T13:54:28;2.20;;;0.75;;
26634;SDS011;14490;54.208;37.686;2023-09-08T13:56:58;4.85;;;0.65;;
26634;SDS011;14490;54.208;37.686;2023-09-08T13:59:28;2.17;;;0.60;;
26634;SDS011;14490;54.208;37.686;2023-09-08T14:01:55;4.43;;;1.13;;
26634;SDS011;14490;54.208;37.686;2023-09-08T14:04:24;4.03;;;0.60;;
26634;SDS011;14490;54.208;37.686;2023-09-08T14:06:51;6.13;;;0.50;;
26634;SDS011;14490;54.208;37.686;2023-09-08T14:09:18;1.55;;;0.50;;
26634;SDS011;14490;54.208;37.686;2023-09-08T14:11:45;2.47;;;0.80;;
26634;SDS011;14490;54.208;37.686;2023-09-08T14:14:11;2.75;;;0.82;;
26634;SDS011;14490;54.208;37.686;2023-09-08T14:16:40;3.67;;;0.65;;
26634;SDS011;14490;54.208;37.686;2023-09-08T14:19:07;3.65;;;0.90;;
26634;SDS011;14490;54.208;37.686;2023-09-08T14:21:34;8.88;;;1.45;;
26634;SDS011;14490;54.208;37.686;2023-09-08T14:24:02;1.75;;;0.70;;
26634;SDS011;14490;54.208;37.686;2023-09-08T14:26:37;2.22;;;0.63;;
26634;SDS011;14490;54.208;37.686;2023-09-08T14:29:04;2.72;;;0.68;;
26634;SDS011;14490;54.208;37.686;2023-09-08T14:31:33;3.30;;;0.40;;
26634;SDS011;14490;54.208;37.686;2023-09-08T14:34:02;1.55;;;0.50;;
26634;SDS011;14490;54.208;37.686;2023-09-08T14:36:29;2.00;;;0.60;;
26634;SDS011;14490;54.208;37.686;2023-09-08T14:38:56;0.65;;;0.30;;
26634;SDS011;14490;54.208;37.686;2023-09-08T14:41:26;0.85;;;0.50;;
26634;SDS011;14490;54.208;37.686;2023-09-08T14:43:54;0.70;;;0.40;;
26634;SDS011;14490;54.208;37.686;2023-09-08T14:46:20;1.02;;;0.43;;
26634;SDS011;14490;54.208;37.686;2023-09-08T14:48:47;1.17;;;0.32;;
26634;SDS011;14490;54.208;37.686;2023-09-08T14:51:16;1.30;;;0.60;;
26634;SDS011;14490;54.208;37.686;2023-09-08T14:53:45;1.40;;;0.50;;
26634;SDS011;14490;54.208;37.686;2023-09-08T14:56:12;0.77;;;0.47;;
26634;SDS011;14490;54.208;37.686;2023-09-08T14:58:39;7.30;;;0.40;;